createdAt,value
2018-02-06T06:00:58.746Z,73.70
2018-02-06T06:04:04.644Z,72.90
2018-02-06T06:06:32.116Z,72.90
2018-02-06T06:08:59.658Z,72.00
2018-02-06T06:11:27.150Z,71.60
2018-02-06T06:13:54.654Z,71.50
2018-02-06T06:16:22.144Z,71.80
2018-02-06T06:18:49.626Z,71.40
2018-02-06T06:21:17.119Z,71.50
2018-02-06T06:23:44.744Z,71.20
2018-02-06T06:26:12.996Z,71.30
2018-02-06T06:28:40.484Z,71.30
2018-02-06T06:31:08.741Z,71.40
2018-02-06T06:36:26.746Z,71.10
2018-02-06T06:38:54.217Z,71.30
2018-02-06T06:41:21.720Z,71.10
2018-02-06T06:43:49.985Z,71.10
2018-02-06T06:46:17.482Z,71.10
2018-02-06T06:48:44.962Z,74.50
2018-02-06T06:51:12.524Z,71.60
2018-02-06T06:53:40.007Z,71.10
2018-02-06T06:56:07.492Z,70.80
2018-02-06T06:58:34.980Z,71.00
2018-02-06T07:01:03.914Z,71.20
2018-02-06T07:03:31.378Z,71.40
2018-02-06T07:05:59.705Z,71.80
2018-02-06T07:08:27.182Z,71.70
2018-02-06T07:10:54.682Z,71.50
2018-02-06T07:13:22.942Z,71.90
2018-02-06T07:15:50.488Z,71.90
2018-02-06T07:18:17.983Z,72.40
2018-02-06T07:20:45.492Z,72.40
2018-02-06T07:23:13.000Z,73.10
2018-02-06T07:25:40.498Z,72.00
2018-02-06T07:28:07.998Z,71.60
2018-02-06T07:30:35.536Z,71.60
2018-02-06T07:33:03.832Z,71.10
2018-02-06T07:35:31.365Z,71.10
2018-02-06T07:38:02.211Z,71.30
2018-02-06T07:40:33.164Z,71.00
2018-02-06T07:43:00.739Z,70.20
2018-02-06T07:45:28.775Z,69.50
2018-02-06T07:48:03.178Z,68.80
2018-02-06T07:50:30.700Z,68.80
2018-02-06T07:53:07.002Z,67.90
2018-02-06T07:55:45.654Z,67.30
2018-02-06T08:06:48.573Z,67.10
2018-02-06T08:09:19.775Z,66.60
2018-02-06T08:11:47.263Z,66.60
2018-02-06T08:14:15.522Z,66.70
2018-02-06T08:16:55.660Z,66.60
2018-02-06T08:31:40.323Z,62.40
2018-02-06T08:34:08.587Z,62.80
2018-02-06T08:36:36.080Z,62.80
2018-02-06T08:39:03.586Z,62.00
2018-02-06T08:41:31.069Z,62.50
2018-02-06T08:43:58.571Z,62.20
2018-02-06T08:46:26.069Z,61.10
2018-02-06T08:48:53.566Z,61.00
2018-02-06T08:51:21.038Z,60.90
2018-02-06T08:53:48.536Z,60.70
2018-02-06T08:56:16.016Z,59.90
2018-02-06T08:58:43.555Z,58.30
2018-02-06T09:01:11.816Z,57.50
2018-02-06T09:03:39.320Z,56.80
2018-02-06T09:06:06.862Z,54.30
2018-02-06T09:08:34.424Z,54.10
2018-02-06T09:11:02.814Z,54.70
2018-02-06T09:13:30.310Z,53.40
2018-02-06T09:15:57.810Z,54.00
2018-02-06T09:18:26.055Z,49.90
2018-02-06T09:20:53.553Z,49.80
2018-02-06T09:23:21.121Z,50.10
2018-02-06T09:25:48.641Z,51.10
2018-02-06T09:28:16.901Z,50.10
2018-02-06T09:30:44.435Z,50.10
2018-02-06T09:33:12.013Z,48.80
2018-02-06T09:35:39.510Z,49.30
2018-02-06T09:38:07.010Z,48.50
2018-02-06T09:40:34.496Z,46.30
2018-02-06T09:43:02.753Z,45.40
2018-02-06T09:45:31.017Z,43.10
2018-02-06T09:47:58.546Z,43.10
2018-02-06T09:50:26.059Z,42.50
2018-02-06T09:52:54.327Z,39.50
2018-02-06T09:55:21.790Z,39.60
2018-02-06T09:57:50.063Z,38.90
2018-02-06T10:00:18.325Z,39.30
2018-02-06T10:02:45.805Z,39.30
2018-02-06T10:05:14.067Z,40.80
2018-02-06T10:07:42.399Z,42.40
2018-02-06T10:10:09.898Z,42.40
2018-02-06T10:12:38.161Z,44.70
2018-02-06T10:15:05.713Z,44.70
2018-02-06T10:17:33.206Z,45.60
2018-02-06T10:20:00.748Z,46.40
2018-02-06T10:22:28.981Z,46.80
2018-02-06T10:24:56.496Z,46.80
2018-02-06T10:27:25.674Z,47.30
2018-02-06T10:29:53.930Z,48.30
2018-02-06T10:32:21.424Z,48.30
2018-02-06T10:34:49.078Z,48.80
2018-02-06T10:37:17.331Z,49.20
2018-02-06T10:39:46.322Z,49.30
2018-02-06T10:42:14.589Z,49.50
2018-02-06T10:44:43.589Z,49.40
2018-02-06T10:47:11.074Z,49.30
2018-02-06T10:49:38.547Z,49.70
2018-02-06T10:52:06.023Z,50.30
2018-02-06T10:54:33.520Z,50.00
2018-02-06T10:57:01.784Z,50.10
2018-02-06T10:59:29.264Z,50.10
2018-02-06T11:01:57.541Z,50.70
2018-02-06T11:04:25.784Z,50.50
2018-02-06T11:06:53.273Z,50.50
2018-02-06T11:09:20.763Z,50.60
2018-02-06T11:11:48.275Z,50.60
2018-02-06T11:14:16.526Z,50.30
2018-02-06T11:16:44.172Z,50.30
2018-02-06T11:19:11.673Z,50.60
2018-02-06T11:21:39.926Z,50.90
2018-02-06T11:24:08.188Z,51.20
2018-02-06T11:26:35.676Z,51.20
2018-02-06T11:29:03.172Z,50.90
2018-02-06T11:31:30.657Z,51.60
2018-02-06T11:33:58.162Z,51.70
2018-02-06T11:36:25.617Z,51.20
2018-02-06T11:38:53.106Z,51.40
2018-02-06T11:41:20.708Z,51.50
2018-02-06T11:43:48.967Z,51.00
2018-02-06T11:46:16.463Z,51.00
2018-02-06T11:48:43.939Z,51.10
2018-02-06T11:51:11.480Z,51.20
2018-02-06T11:53:39.725Z,51.60
2018-02-06T11:56:08.026Z,51.30
2018-02-06T11:58:35.517Z,51.30
2018-02-06T12:01:02.995Z,50.50
2018-02-06T12:03:30.475Z,50.60
2018-02-06T12:05:58.946Z,50.70
2018-02-06T12:08:27.194Z,51.10
2018-02-06T12:10:55.437Z,51.10
2018-02-06T12:13:22.939Z,51.30
2018-02-06T12:15:51.385Z,51.20
2018-02-06T12:18:18.868Z,50.90
2018-02-06T12:20:46.340Z,51.00
2018-02-06T12:23:14.674Z,51.00
2018-02-06T12:25:42.181Z,50.90
2018-02-06T12:28:09.688Z,50.80
2018-02-06T12:30:37.178Z,50.80
2018-02-06T12:33:05.451Z,50.50
2018-02-06T12:35:33.711Z,50.60
2018-02-06T12:38:01.182Z,50.60
2018-02-06T12:40:29.454Z,49.80
2018-02-06T12:42:57.131Z,49.80
2018-02-06T12:45:25.385Z,49.60
2018-02-06T12:47:52.891Z,49.60
2018-02-06T12:50:20.371Z,49.80
2018-02-06T12:52:47.862Z,49.90
2018-02-06T12:55:15.354Z,49.80
2018-02-06T12:57:42.826Z,50.40
2018-02-06T13:00:10.333Z,49.70
2018-02-06T13:02:38.604Z,49.40
2018-02-06T13:05:06.877Z,49.20
2018-02-06T13:07:34.366Z,49.00
2018-02-06T13:10:01.853Z,49.30
2018-02-06T13:12:29.341Z,49.60
2018-02-06T13:14:56.812Z,49.20
2018-02-06T13:17:25.077Z,49.00
2018-02-06T13:19:52.578Z,49.00
2018-02-06T13:22:20.084Z,48.60
2018-02-06T13:24:47.571Z,48.90
2018-02-06T13:27:15.827Z,48.10
2018-02-06T13:29:44.108Z,48.40
2018-02-06T13:32:12.351Z,48.50
2018-02-06T13:34:39.907Z,48.40
2018-02-06T13:37:07.397Z,50.00
2018-02-06T13:39:35.651Z,51.40
2018-02-06T13:42:03.144Z,51.30
2018-02-06T13:44:30.651Z,52.20
2018-02-06T13:46:58.562Z,52.70
2018-02-06T13:49:26.807Z,53.10
2018-02-06T14:00:29.663Z,54.40
2018-02-06T14:02:57.144Z,54.30
2018-02-06T14:05:24.648Z,54.70
2018-02-06T14:07:52.894Z,55.10
2018-02-06T14:10:20.396Z,55.10
2018-02-06T14:12:48.653Z,55.40
2018-02-06T14:15:16.158Z,55.40
2018-02-06T14:17:43.645Z,55.70
2018-02-06T14:20:11.124Z,56.00
2018-02-06T14:22:38.628Z,55.90
2018-02-06T14:25:06.109Z,56.60
2018-02-06T14:27:33.607Z,56.10
2018-02-06T14:30:01.959Z,56.10
2018-02-06T14:32:29.472Z,56.10
2018-02-06T14:34:56.949Z,56.30
2018-02-06T14:37:30.211Z,56.30
2018-02-06T14:39:57.680Z,56.40
2018-02-06T14:42:25.171Z,56.60
2018-02-06T14:44:52.711Z,57.30
2018-02-06T14:47:20.179Z,57.70
2018-02-06T14:49:47.692Z,58.30
2018-02-06T14:52:15.178Z,58.60
2018-02-06T14:54:42.709Z,58.90
2018-02-06T14:57:10.224Z,59.40
2018-02-06T14:59:37.839Z,59.70
2018-02-06T15:02:05.320Z,60.10
2018-02-06T15:04:34.232Z,61.00
2018-02-06T15:07:01.731Z,61.20
2018-02-06T15:09:29.214Z,61.50
2018-02-06T15:11:56.700Z,61.70
2018-02-06T15:14:24.168Z,61.90
2018-02-06T15:16:52.578Z,64.20
2018-02-06T15:19:20.082Z,64.20
2018-02-06T15:21:47.594Z,65.10
2018-02-06T15:24:15.103Z,66.00
2018-02-06T15:26:42.596Z,67.20
2018-02-06T15:29:10.105Z,68.20
2018-02-06T15:31:37.602Z,67.60
2018-02-06T15:34:05.878Z,71.50
2018-02-06T15:36:33.366Z,71.50
2018-02-06T15:39:00.858Z,72.00
2018-02-06T15:41:28.379Z,73.30
2018-02-06T15:43:55.885Z,73.80
2018-02-06T15:46:24.144Z,74.40
2018-02-06T15:48:51.638Z,73.60
2018-02-06T15:51:19.111Z,73.50
2018-02-06T15:53:46.633Z,74.20
2018-02-06T15:56:14.904Z,76.70
2018-02-06T15:58:42.388Z,76.60
2018-02-06T16:01:20.576Z,77.70
2018-02-06T16:03:48.089Z,76.50
2018-02-06T16:06:15.597Z,78.10
2018-02-06T16:08:43.094Z,79.50
2018-02-06T16:11:10.576Z,78.20
2018-02-06T16:13:38.083Z,79.40
2018-02-06T16:16:05.559Z,79.50
2018-02-06T16:18:33.058Z,80.50
2018-02-06T16:21:03.796Z,81.80
2018-02-06T16:23:31.293Z,81.10
2018-02-06T16:25:58.773Z,80.90
2018-02-06T16:28:26.253Z,82.00
2018-02-06T16:30:54.499Z,81.10
2018-02-06T16:33:22.042Z,81.00
2018-02-06T16:35:49.521Z,81.70
2018-02-06T16:38:17.010Z,82.80
2018-02-06T16:40:45.276Z,83.30
2018-02-06T16:43:12.985Z,83.20
2018-02-06T16:45:40.495Z,83.60
2018-02-06T16:48:07.981Z,84.00
2018-02-06T16:50:35.482Z,84.20
2018-02-06T16:53:02.976Z,84.00
2018-02-06T16:55:31.230Z,84.90
2018-02-06T16:57:58.720Z,84.90
2018-02-06T17:00:26.219Z,85.00
2018-02-06T17:02:53.695Z,86.20
2018-02-06T17:05:22.035Z,85.90
2018-02-06T17:07:49.931Z,87.30
2018-02-06T17:10:17.399Z,86.20
2018-02-06T17:12:45.187Z,86.00
2018-02-06T17:15:13.624Z,86.40
2018-02-06T17:17:41.109Z,86.40
2018-02-06T17:20:09.358Z,86.50
2018-02-06T17:22:36.915Z,86.40
2018-02-06T17:25:04.534Z,86.10
2018-02-06T17:27:32.304Z,86.50
2018-02-06T17:29:59.943Z,86.70
2018-02-06T17:32:27.454Z,86.50
2018-02-06T17:34:54.959Z,86.20
2018-02-06T17:37:22.465Z,86.40
2018-02-06T17:39:49.971Z,86.50
2018-02-06T17:42:17.528Z,86.60
2018-02-06T17:44:45.059Z,85.80
2018-02-06T17:47:12.564Z,86.30
2018-02-06T17:49:40.141Z,87.10
2018-02-06T17:52:07.682Z,85.90
2018-02-06T17:54:35.158Z,85.80
2018-02-06T17:57:02.730Z,85.80
2018-02-06T17:59:30.392Z,85.00
2018-02-06T18:01:57.925Z,84.20
2018-02-06T18:04:25.425Z,84.00
2018-02-06T18:06:53.675Z,83.20
2018-02-06T18:09:21.146Z,83.10
2018-02-06T18:11:49.415Z,82.50
2018-02-06T18:14:16.884Z,82.20
2018-02-06T18:16:45.126Z,81.10
2018-02-06T18:19:12.606Z,81.10
2018-02-06T18:21:40.859Z,81.10
2018-02-06T18:24:08.355Z,80.90
2018-02-06T18:26:35.850Z,80.50
2018-02-06T18:29:03.335Z,80.50
2018-02-06T18:31:30.910Z,80.30
2018-02-06T18:33:59.159Z,81.10
2018-02-06T18:36:26.647Z,81.10
2018-02-06T18:38:54.919Z,81.20
2018-02-06T18:41:22.463Z,81.20
2018-02-06T18:43:49.967Z,81.50
2018-02-06T18:46:17.495Z,81.70
2018-02-06T18:48:45.759Z,81.90
2018-02-06T18:51:13.998Z,82.20
2018-02-06T18:53:41.532Z,82.20
2018-02-06T18:56:09.036Z,81.90
2018-02-06T18:58:36.547Z,82.50
2018-02-06T19:01:04.041Z,82.50
2018-02-06T19:03:31.522Z,82.50
2018-02-06T19:05:59.767Z,82.00
2018-02-06T19:08:27.255Z,82.00
2018-02-06T19:10:55.608Z,81.50
2018-02-06T19:13:23.111Z,81.50
2018-02-06T19:15:50.632Z,81.60
2018-02-06T19:18:18.888Z,81.40
2018-02-06T19:20:46.370Z,81.40
2018-02-06T19:23:14.616Z,80.90
2018-02-06T19:25:42.092Z,80.90
2018-02-06T19:28:10.340Z,80.00
2018-02-06T19:30:37.874Z,80.00
2018-02-06T19:33:05.414Z,79.90
2018-02-06T19:35:32.939Z,79.70
2018-02-06T19:38:00.454Z,79.90
2018-02-06T19:40:27.936Z,78.50
2018-02-06T19:42:55.451Z,77.90
2018-02-06T19:45:23.016Z,78.80
2018-02-06T19:47:50.513Z,79.00
2018-02-06T19:50:18.002Z,79.10
2018-02-06T19:52:45.527Z,78.80
2018-02-06T19:55:13.010Z,78.50
2018-02-06T19:57:40.479Z,77.40
2018-02-06T20:00:08.055Z,78.40
2018-02-06T20:02:35.660Z,79.40
2018-02-06T20:05:03.940Z,79.40
